Time;durP1;ratioP1;P1;durP2;ratioP2;P2;SDS_P1;SDS_P2;PMS_P1;PMS_P2;Temp;Humidity;BMP_temperature;BMP_pressure;BME280_temperature;BME280_humidity;BME280_pressure;Samples;Min_cycle;Max_cycle;Signal;HPM_P1;HPM_P2
2023/09/23 00:00:36;;;;;;;7.30;6.80;;;14.70;79.70;;;;;;6190749;28;20247;-81
2023/09/23 00:03:41;;;;;;;6.67;6.23;;;14.70;79.70;;;;;;6189358;28;20719;-81
2023/09/23 00:06:44;;;;;;;6.73;6.23;;;14.70;79.80;;;;;;6189568;28;20363;-82
2023/09/23 00:09:48;;;;;;;5.80;5.43;;;14.70;79.70;;;;;;6189744;28;20302;-83
2023/09/23 00:12:55;;;;;;;7.10;6.50;;;14.70;79.70;;;;;;6189464;28;20227;-82
2023/09/23 00:15:58;;;;;;;7.97;7.30;;;14.70;79.70;;;;;;6191187;28;20232;-81
2023/09/23 00:19:02;;;;;;;6.63;6.17;;;14.70;79.60;;;;;;6191302;28;20286;-81
2023/09/23 00:22:05;;;;;;;6.20;5.90;;;14.70;79.60;;;;;;6191460;28;20263;-81
2023/09/23 00:25:09;;;;;;;5.40;5.10;;;14.70;79.50;;;;;;6181667;28;20244;-80
2023/09/23 00:28:14;;;;;;;5.53;5.30;;;14.70;79.50;;;;;;6199586;28;20232;-78
2023/09/23 00:31:18;;;;;;;5.57;5.20;;;14.70;79.50;;;;;;6188993;28;20248;-81
2023/09/23 00:34:23;;;;;;;6.03;5.50;;;14.60;79.70;;;;;;6190879;28;20322;-82
2023/09/23 00:37:30;;;;;;;5.23;4.83;;;14.60;79.80;;;;;;6195084;28;20240;-81
2023/09/23 00:40:33;;;;;;;5.13;4.93;;;14.50;79.80;;;;;;6182541;28;20240;-80
2023/09/23 00:43:40;;;;;;;5.63;5.43;;;14.50;79.80;;;;;;6190187;28;20240;-79
2023/09/23 00:46:45;;;;;;;5.50;5.30;;;14.40;80.00;;;;;;6183619;28;20736;-82
2023/09/23 00:49:49;;;;;;;5.60;5.30;;;14.40;80.00;;;;;;6190175;28;20598;-82
2023/09/23 00:52:53;;;;;;;4.97;4.77;;;14.40;80.10;;;;;;6188359;28;20232;-80
2023/09/23 00:55:57;;;;;;;5.73;5.43;;;14.40;80.40;;;;;;6189018;28;20242;-82
2023/09/23 00:59:02;;;;;;;5.60;5.20;;;14.30;80.40;;;;;;6189029;28;20236;-81
2023/09/23 01:02:06;;;;;;;5.40;5.17;;;14.20;80.60;;;;;;6187934;28;20742;-82
2023/09/23 01:05:09;;;;;;;5.33;5.13;;;14.20;80.50;;;;;;6193873;28;20236;-82
2023/09/23 01:08:25;;;;;;;5.43;5.03;;;14.20;80.40;;;;;;6194909;28;20239;-79
2023/09/23 01:11:30;;;;;;;5.43;5.13;;;14.20;80.40;;;;;;6189405;28;20877;-80
2023/09/23 01:14:34;;;;;;;5.30;5.00;;;14.20;80.40;;;;;;6192334;28;20252;-81
2023/09/23 01:17:38;;;;;;;5.10;4.90;;;14.20;80.50;;;;;;6190807;28;20797;-81
2023/09/23 01:20:43;;;;;;;5.00;4.80;;;14.10;80.60;;;;;;6191594;28;20255;-81
2023/09/23 01:23:47;;;;;;;5.23;4.90;;;14.10;80.60;;;;;;6188705;28;20248;-82
2023/09/23 01:26:51;;;;;;;4.20;4.00;;;14.10;80.70;;;;;;6194208;28;20240;-81
2023/09/23 01:29:54;;;;;;;4.90;4.60;;;14.10;80.60;;;;;;6194713;28;20278;-80
2023/09/23 01:32:57;;;;;;;5.63;4.83;;;14.00;80.70;;;;;;6191642;28;20242;-79
2023/09/23 01:36:03;;;;;;;4.80;4.50;;;14.00;80.70;;;;;;6192776;28;20255;-78
2023/09/23 01:39:08;;;;;;;4.67;4.40;;;13.90;80.70;;;;;;6184582;28;20266;-80
2023/09/23 01:42:11;;;;;;;5.03;4.90;;;13.90;80.70;;;;;;6190557;28;20750;-81
2023/09/23 01:45:15;;;;;;;4.60;4.40;;;13.90;80.70;;;;;;6191833;28;20322;-82
2023/09/23 01:48:21;;;;;;;4.47;4.30;;;13.90;80.70;;;;;;6191368;28;20323;-81
2023/09/23 01:51:24;;;;;;;4.53;4.33;;;13.90;80.70;;;;;;6190293;28;20363;-82
2023/09/23 01:54:28;;;;;;;5.00;4.70;;;13.90;80.70;;;;;;6190871;28;20236;-81
2023/09/23 01:57:33;;;;;;;4.87;4.40;;;13.90;80.60;;;;;;6190850;28;20382;-81
2023/09/23 02:00:38;;;;;;;5.00;4.80;;;13.80;80.70;;;;;;6190390;28;20232;-82
2023/09/23 02:03:41;;;;;;;4.20;3.97;;;13.90;80.70;;;;;;6183113;28;20244;-81
2023/09/23 02:06:46;;;;;;;4.17;4.00;;;13.90;80.50;;;;;;6191834;28;20755;-80
2023/09/23 02:09:50;;;;;;;4.60;4.33;;;13.90;80.40;;;;;;6190893;28;20379;-80
2023/09/23 02:12:54;;;;;;;4.77;4.57;;;13.90;80.40;;;;;;6182900;28;20326;-81
2023/09/23 02:15:58;;;;;;;5.53;4.27;;;13.80;80.50;;;;;;6190474;28;20896;-82
2023/09/23 02:19:02;;;;;;;3.70;3.60;;;13.70;80.50;;;;;;6187754;28;20240;-81
2023/09/23 02:22:07;;;;;;;4.57;4.37;;;13.70;80.60;;;;;;6185418;28;20750;-81
2023/09/23 02:25:13;;;;;;;4.40;4.20;;;13.70;80.60;;;;;;6185352;28;20254;-83
2023/09/23 02:28:18;;;;;;;4.43;4.23;;;13.70;80.60;;;;;;6192063;28;20769;-80
2023/09/23 02:31:21;;;;;;;4.60;4.33;;;13.60;80.60;;;;;;6195020;28;20247;-81
2023/09/23 02:34:24;;;;;;;4.10;3.90;;;13.60;80.70;;;;;;6192020;28;20243;-80
2023/09/23 02:37:27;;;;;;;4.37;4.07;;;13.60;80.60;;;;;;6186111;28;20243;-82
2023/09/23 02:40:31;;;;;;;5.37;4.80;;;13.60;80.60;;;;;;6188143;28;20790;-81
2023/09/23 02:43:35;;;;;;;3.93;3.73;;;13.60;80.60;;;;;;6193126;28;20531;-82
2023/09/23 02:46:39;;;;;;;4.23;4.10;;;13.60;80.50;;;;;;6194114;28;20390;-80
2023/09/23 02:49:44;;;;;;;4.10;4.00;;;13.60;80.50;;;;;;6191378;28;20273;-81
2023/09/23 02:52:48;;;;;;;4.57;4.40;;;13.50;80.40;;;;;;6185752;28;20326;-81
2023/09/23 02:56:06;;;;;;;3.80;3.70;;;13.50;80.50;;;;;;6190348;28;20232;-80
2023/09/23 02:59:13;;;;;;;4.37;3.80;;;13.50;80.50;;;;;;6185185;28;20239;-81
2023/09/23 03:02:23;;;;;;;3.83;3.63;;;13.50;80.50;;;;;;6189452;28;20264;-80
2023/09/23 03:05:29;;;;;;;3.77;3.67;;;13.40;80.50;;;;;;6185923;28;20298;-81
2023/09/23 03:08:37;;;;;;;3.83;3.63;;;13.40;80.50;;;;;;6187837;28;20228;-83
2023/09/23 03:11:48;;;;;;;3.80;3.70;;;13.40;80.50;;;;;;6190972;28;20751;-79
2023/09/23 03:14:52;;;;;;;4.17;3.87;;;13.40;80.50;;;;;;6185130;28;20247;-84
2023/09/23 03:17:59;;;;;;;4.00;3.70;;;13.30;80.40;;;;;;6189863;28;20244;-79
2023/09/23 03:21:07;;;;;;;3.93;3.63;;;13.30;80.30;;;;;;6185640;28;20360;-80
2023/09/23 03:24:11;;;;;;;3.60;3.50;;;13.30;80.20;;;;;;6185549;28;20241;-81
2023/09/23 03:27:16;;;;;;;3.17;2.97;;;13.30;80.20;;;;;;6198258;28;20279;-79
2023/09/23 03:30:20;;;;;;;3.23;3.23;;;13.30;80.10;;;;;;6185177;28;20847;-81
2023/09/23 03:33:23;;;;;;;3.60;3.30;;;13.30;80.10;;;;;;6176599;28;20256;-79
2023/09/23 03:36:26;;;;;;;3.50;3.40;;;13.30;80.00;;;;;;6188252;28;20314;-82
2023/09/23 03:39:29;;;;;;;3.50;3.30;;;13.30;79.80;;;;;;6183398;28;20710;-82
2023/09/23 03:42:34;;;;;;;2.90;2.80;;;13.30;79.80;;;;;;6191665;28;20315;-80
2023/09/23 03:45:38;;;;;;;3.60;3.40;;;13.40;79.70;;;;;;6187619;28;20279;-81
2023/09/23 03:48:43;;;;;;;3.37;3.07;;;13.30;79.40;;;;;;6187772;28;21206;-82
2023/09/23 03:51:46;;;;;;;3.60;3.40;;;13.30;79.30;;;;;;6188551;28;20239;-81
2023/09/23 03:54:50;;;;;;;3.27;3.07;;;13.40;79.30;;;;;;6183541;28;20327;-81
2023/09/23 03:57:56;;;;;;;3.20;3.10;;;13.30;79.40;;;;;;6184627;28;20239;-81
2023/09/23 04:01:05;;;;;;;3.27;3.07;;;13.30;79.30;;;;;;6193396;28;20240;-82
2023/09/23 04:04:10;;;;;;;2.87;2.80;;;13.30;79.00;;;;;;6183414;28;20239;-80
2023/09/23 04:07:15;;;;;;;2.73;2.63;;;13.30;79.00;;;;;;6187607;28;20248;-80
2023/09/23 04:10:23;;;;;;;3.10;3.00;;;13.30;78.70;;;;;;6186916;28;20236;-80
2023/09/23 04:13:27;;;;;;;2.73;2.53;;;13.30;78.70;;;;;;6184667;28;20310;-80
2023/09/23 04:16:33;;;;;;;3.13;3.03;;;13.30;78.30;;;;;;6181924;28;20236;-81
2023/09/23 04:19:36;;;;;;;2.90;2.80;;;13.30;78.30;;;;;;6187019;28;20251;-79
2023/09/23 04:22:41;;;;;;;2.43;2.43;;;13.30;78.30;;;;;;6187490;28;20243;-81
2023/09/23 04:25:44;;;;;;;2.67;2.53;;;13.30;78.20;;;;;;6188193;28;20239;-82
2023/09/23 04:28:51;;;;;;;2.80;2.70;;;13.30;78.10;;;;;;6186261;28;20243;-79
2023/09/23 04:31:56;;;;;;;2.80;2.70;;;13.30;78.00;;;;;;6188833;28;20244;-80
2023/09/23 04:34:59;;;;;;;2.50;2.40;;;13.30;78.00;;;;;;6180868;28;20240;-79
2023/09/23 04:38:04;;;;;;;2.40;2.20;;;13.30;78.00;;;;;;6183239;28;20716;-81
2023/09/23 04:41:07;;;;;;;2.63;2.50;;;13.30;78.10;;;;;;6181911;28;20244;-81
2023/09/23 04:44:12;;;;;;;2.83;2.73;;;13.30;78.00;;;;;;6186562;28;20334;-78
2023/09/23 04:47:17;;;;;;;2.70;2.60;;;13.20;78.10;;;;;;6188606;28;20251;-79
2023/09/23 04:50:23;;;;;;;2.40;2.33;;;13.10;78.10;;;;;;6188511;28;20323;-81
2023/09/23 04:53:28;;;;;;;2.97;2.80;;;13.10;78.00;;;;;;6183633;28;20244;-80
2023/09/23 04:56:31;;;;;;;2.70;2.50;;;13.10;78.00;;;;;;6185401;28;20258;-80
2023/09/23 04:59:36;;;;;;;2.70;2.50;;;13.10;78.10;;;;;;6185936;28;20330;-81
2023/09/23 05:02:41;;;;;;;2.60;2.60;;;13.10;77.90;;;;;;6189077;28;20296;-80
2023/09/23 05:05:45;;;;;;;2.43;2.30;;;13.10;77.90;;;;;;6187925;28;20232;-82
2023/09/23 05:08:48;;;;;;;2.40;2.40;;;13.00;78.10;;;;;;6174851;28;20239;-80
2023/09/23 05:11:52;;;;;;;4.00;2.77;;;13.00;78.30;;;;;;6183826;28;20267;-81
2023/09/23 05:14:57;;;;;;;2.23;2.23;;;12.90;78.40;;;;;;6184452;28;20402;-80
2023/09/23 05:18:00;;;;;;;2.73;2.53;;;12.90;78.20;;;;;;6183860;28;20260;-80
2023/09/23 05:21:04;;;;;;;2.70;2.60;;;12.90;78.10;;;;;;6186334;28;20846;-81
2023/09/23 05:24:10;;;;;;;3.30;3.20;;;12.80;78.40;;;;;;6185018;28;20657;-81
2023/09/23 05:27:13;;;;;;;2.40;2.30;;;12.90;78.40;;;;;;6185411;28;20236;-78
2023/09/23 05:30:18;;;;;;;2.40;2.30;;;12.80;78.40;;;;;;6187656;28;20295;-83
2023/09/23 05:33:21;;;;;;;2.50;2.47;;;12.80;78.60;;;;;;6182440;28;20252;-80
2023/09/23 05:36:25;;;;;;;2.20;2.20;;;12.80;78.40;;;;;;6186060;28;20290;-81
2023/09/23 05:39:28;;;;;;;2.90;2.80;;;12.80;78.40;;;;;;6184565;28;20261;-79
2023/09/23 05:42:32;;;;;;;2.50;2.50;;;12.70;78.50;;;;;;6183990;28;20260;-81
2023/09/23 05:45:37;;;;;;;2.50;2.40;;;12.80;78.40;;;;;;6183127;28;20239;-80
2023/09/23 05:48:40;;;;;;;2.67;2.57;;;12.80;78.50;;;;;;6193299;28;20927;-79
2023/09/23 05:51:44;;;;;;;2.80;2.70;;;12.80;78.30;;;;;;6191080;28;20745;-80
2023/09/23 05:54:48;;;;;;;2.63;2.50;;;12.80;78.40;;;;;;6191154;28;20261;-81
2023/09/23 05:57:51;;;;;;;2.70;2.47;;;12.80;78.40;;;;;;6187299;28;20231;-83
2023/09/23 06:00:55;;;;;;;3.00;2.80;;;12.80;78.40;;;;;;6191642;28;20814;-80
2023/09/23 06:03:59;;;;;;;2.70;2.60;;;12.90;78.10;;;;;;6189614;28;20246;-82
2023/09/23 06:07:02;;;;;;;2.50;2.40;;;13.00;77.60;;;;;;6187222;28;20237;-78
2023/09/23 06:10:06;;;;;;;2.63;2.47;;;13.00;77.40;;;;;;6192523;28;20240;-82
2023/09/23 06:13:10;;;;;;;2.53;2.53;;;13.00;77.20;;;;;;6192465;28;20352;-80
2023/09/23 06:16:16;;;;;;;2.83;2.60;;;13.10;76.60;;;;;;6191839;28;20391;-81
2023/09/23 06:19:19;;;;;;;2.57;2.57;;;13.10;76.60;;;;;;6186285;28;20260;-79
2023/09/23 06:22:23;;;;;;;2.30;2.30;;;13.10;76.70;;;;;;6191075;28;20706;-80
2023/09/23 06:25:26;;;;;;;2.90;2.70;;;13.10;76.50;;;;;;6179781;28;20346;-81
2023/09/23 06:28:30;;;;;;;2.20;2.20;;;13.10;76.50;;;;;;6191442;28;20311;-80
2023/09/23 06:31:35;;;;;;;2.07;1.97;;;13.30;76.00;;;;;;6189849;28;20972;-78
2023/09/23 06:34:38;;;;;;;2.77;2.40;;;13.50;74.70;;;;;;6184660;28;20252;-82
2023/09/23 06:37:41;;;;;;;2.07;2.07;;;13.50;74.80;;;;;;6185627;28;20319;-81
2023/09/23 06:40:44;;;;;;;2.50;2.20;;;13.50;74.60;;;;;;6189656;28;20379;-82
2023/09/23 06:43:47;;;;;;;2.50;2.43;;;13.50;74.70;;;;;;6191590;28;20251;-79
2023/09/23 06:46:53;;;;;;;2.33;2.23;;;13.60;74.40;;;;;;6189761;28;20339;-81
2023/09/23 06:49:56;;;;;;;2.57;2.13;;;13.60;74.30;;;;;;6190913;28;20255;-77
2023/09/23 06:53:00;;;;;;;2.23;2.10;;;13.60;73.90;;;;;;6193156;28;20243;-80
2023/09/23 06:56:04;;;;;;;2.13;2.03;;;13.50;74.20;;;;;;6191998;28;20239;-83
2023/09/23 06:59:07;;;;;;;2.37;2.30;;;13.60;74.20;;;;;;6191274;28;20753;-79
2023/09/23 07:02:12;;;;;;;2.33;2.23;;;13.60;73.50;;;;;;6193439;28;20244;-82
2023/09/23 07:05:15;;;;;;;2.77;2.50;;;13.60;73.80;;;;;;6189845;28;20360;-79
2023/09/23 07:08:18;;;;;;;2.27;2.27;;;13.60;73.90;;;;;;6189392;28;20247;-77
2023/09/23 07:11:23;;;;;;;2.63;2.20;;;13.80;73.30;;;;;;6190784;28;20239;-76
2023/09/23 07:14:26;;;;;;;2.27;2.13;;;14.20;72.40;;;;;;6183226;28;20351;-81
2023/09/23 07:17:31;;;;;;;2.10;2.10;;;14.30;71.60;;;;;;6202882;28;20889;-78
2023/09/23 07:20:34;;;;;;;2.13;2.03;;;14.30;71.30;;;;;;6190547;28;20248;-78
2023/09/23 07:23:37;;;;;;;2.00;1.90;;;14.30;71.50;;;;;;6191723;28;20262;-80
2023/09/23 07:26:43;;;;;;;1.90;1.90;;;14.30;71.50;;;;;;6193556;28;20236;-82
2023/09/23 07:29:46;;;;;;;2.63;2.20;;;14.40;70.80;;;;;;6189219;28;20243;-82
2023/09/23 07:32:50;;;;;;;2.63;2.50;;;14.40;70.20;;;;;;6187163;28;20309;-79
2023/09/23 07:35:54;;;;;;;2.30;2.20;;;14.40;70.40;;;;;;6187626;28;20235;-77
2023/09/23 07:38:57;;;;;;;2.07;1.97;;;14.50;69.90;;;;;;6184375;28;20244;-77
2023/09/23 07:42:00;;;;;;;3.73;1.83;;;14.40;68.90;;;;;;6188634;28;20558;-80
2023/09/23 07:45:04;;;;;;;2.13;2.03;;;14.40;68.70;;;;;;6190952;28;20791;-79
2023/09/23 07:48:10;;;;;;;2.40;2.30;;;14.60;68.40;;;;;;6186121;28;20371;-77
2023/09/23 07:51:13;;;;;;;2.10;2.10;;;14.60;68.60;;;;;;6189120;28;20727;-79
2023/09/23 07:54:16;;;;;;;1.87;1.87;;;14.80;68.30;;;;;;6187417;28;20934;-77
2023/09/23 07:57:19;;;;;;;2.00;2.00;;;14.80;67.50;;;;;;6181535;28;20240;-78
2023/09/23 08:00:22;;;;;;;2.87;2.57;;;14.90;67.10;;;;;;6188972;28;20794;-80
2023/09/23 08:03:29;;;;;;;2.10;2.00;;;14.90;67.30;;;;;;6185252;28;20236;-80
2023/09/23 08:06:32;;;;;;;1.77;1.73;;;15.00;66.50;;;;;;6188288;28;20255;-76
2023/09/23 08:09:35;;;;;;;2.10;2.00;;;15.10;66.50;;;;;;6189389;28;20256;-77
2023/09/23 08:12:39;;;;;;;1.90;1.80;;;15.30;66.20;;;;;;6189681;28;20725;-78
2023/09/23 08:15:42;;;;;;;2.10;1.90;;;15.30;66.10;;;;;;6187815;28;20366;-77
2023/09/23 08:18:47;;;;;;;1.97;1.97;;;15.30;65.90;;;;;;6185858;28;20299;-78
2023/09/23 08:21:50;;;;;;;2.20;2.10;;;15.30;66.30;;;;;;6185972;28;20232;-78
2023/09/23 08:24:53;;;;;;;1.83;1.80;;;15.40;66.00;;;;;;6188589;28;20682;-79
2023/09/23 08:27:56;;;;;;;1.80;1.80;;;15.50;65.40;;;;;;6189408;28;20255;-78
2023/09/23 08:30:59;;;;;;;1.90;1.90;;;15.60;65.60;;;;;;6189636;28;20707;-78
2023/09/23 08:34:09;;;;;;;1.90;1.87;;;15.60;65.30;;;;;;6187954;28;20284;-77
2023/09/23 08:37:12;;;;;;;2.13;2.13;;;15.60;65.20;;;;;;6187961;28;20696;-79
2023/09/23 08:40:19;;;;;;;2.00;2.00;;;15.60;64.30;;;;;;6186448;28;20326;-78
2023/09/23 08:43:36;;;;;;;2.70;2.40;;;15.60;64.30;;;;;;6187964;28;20777;-79
2023/09/23 08:46:41;;;;;;;2.10;2.00;;;15.60;64.00;;;;;;6181817;28;20268;-79
2023/09/23 08:49:47;;;;;;;1.90;1.90;;;15.60;64.40;;;;;;6179087;28;20443;-76
2023/09/23 08:52:51;;;;;;;1.87;1.80;;;15.80;64.40;;;;;;6184386;28;20811;-78
2023/09/23 08:55:54;;;;;;;1.50;1.50;;;15.80;63.50;;;;;;6187215;28;20231;-79
2023/09/23 08:58:58;;;;;;;2.23;2.10;;;15.80;63.90;;;;;;6187786;28;20321;-78
2023/09/23 09:02:02;;;;;;;1.70;1.70;;;15.80;63.60;;;;;;6187502;28;20700;-80
2023/09/23 09:05:08;;;;;;;1.80;1.80;;;15.80;63.80;;;;;;6187556;28;20263;-80
2023/09/23 09:08:12;;;;;;;2.03;2.00;;;16.10;63.40;;;;;;6188571;28;20811;-78
2023/09/23 09:11:23;;;;;;;1.90;1.90;;;16.30;62.90;;;;;;6187095;28;20749;-80
2023/09/23 09:14:26;;;;;;;1.90;1.80;;;16.40;62.40;;;;;;6188463;28;20304;-80
2023/09/23 09:17:32;;;;;;;1.57;1.57;;;16.50;62.20;;;;;;6183895;28;20248;-80
2023/09/23 09:20:37;;;;;;;1.70;1.70;;;16.70;62.10;;;;;;6188126;28;20240;-78
2023/09/23 09:23:40;;;;;;;1.67;1.60;;;17.00;62.10;;;;;;6188285;28;20310;-80
2023/09/23 09:26:47;;;;;;;2.10;2.10;;;17.00;61.90;;;;;;6192351;28;20240;-79
2023/09/23 09:29:50;;;;;;;2.20;2.10;;;16.70;61.00;;;;;;6181710;28;20636;-80
2023/09/23 09:33:08;;;;;;;2.00;2.00;;;16.50;60.90;;;;;;6191674;28;20318;-78
2023/09/23 09:36:17;;;;;;;2.10;2.10;;;16.60;61.90;;;;;;6193242;28;20239;-80
2023/09/23 09:39:26;;;;;;;2.57;2.37;;;16.80;61.50;;;;;;6185808;28;20255;-79
2023/09/23 09:42:33;;;;;;;1.90;1.80;;;17.00;60.90;;;;;;6192899;28;20244;-80
2023/09/23 09:45:40;;;;;;;2.17;2.17;;;17.20;60.00;;;;;;6190564;28;20379;-81
2023/09/23 09:48:45;;;;;;;2.30;2.30;;;16.90;60.40;;;;;;6184492;28;20773;-78
2023/09/23 09:51:50;;;;;;;2.00;2.00;;;17.00;60.30;;;;;;6192945;28;20738;-78
2023/09/23 09:54:56;;;;;;;1.97;1.97;;;17.10;59.50;;;;;;6191123;28;20244;-78
2023/09/23 09:58:01;;;;;;;1.93;1.93;;;17.30;59.50;;;;;;6192875;28;20701;-77
2023/09/23 10:01:04;;;;;;;2.17;2.17;;;17.50;60.10;;;;;;6192151;28;20248;-79
2023/09/23 10:04:12;;;;;;;2.30;2.30;;;17.80;58.90;;;;;;6191834;28;20379;-77
2023/09/23 10:07:17;;;;;;;2.90;2.70;;;17.80;58.50;;;;;;6191191;28;20255;-80
2023/09/23 10:10:31;;;;;;;2.50;2.50;;;17.60;58.70;;;;;;6192682;28;20236;-81
2023/09/23 10:13:35;;;;;;;2.40;2.30;;;17.40;58.70;;;;;;6190682;28;20654;-78
2023/09/23 10:16:38;;;;;;;2.77;2.77;;;17.20;59.70;;;;;;6193273;28;20240;-82
2023/09/23 10:19:43;;;;;;;2.97;2.43;;;17.00;60.70;;;;;;6187101;28;20228;-80
2023/09/23 10:22:53;;;;;;;2.70;2.60;;;17.20;61.10;;;;;;6186948;28;20255;-80
2023/09/23 10:25:56;;;;;;;3.10;2.90;;;17.60;59.90;;;;;;6191979;28;20240;-80
2023/09/23 10:29:03;;;;;;;3.27;3.17;;;17.60;60.00;;;;;;6190512;28;20319;-78
2023/09/23 10:32:12;;;;;;;3.40;3.30;;;17.20;60.40;;;;;;6189287;28;20246;-78
2023/09/23 10:35:24;;;;;;;2.77;2.77;;;17.20;61.50;;;;;;6182434;28;20263;-80
2023/09/23 10:38:34;;;;;;;2.80;2.80;;;17.30;60.70;;;;;;6187489;28;21056;-80
2023/09/23 10:41:39;;;;;;;2.97;2.87;;;17.00;61.20;;;;;;6184714;28;20246;-79
2023/09/23 10:44:42;;;;;;;2.63;2.63;;;17.00;61.10;;;;;;6185521;28;20251;-80
2023/09/23 10:47:46;;;;;;;2.70;2.60;;;17.00;61.20;;;;;;6172691;28;20374;-79
2023/09/23 10:50:51;;;;;;;2.50;2.50;;;16.80;60.90;;;;;;6189046;28;20232;-83
2023/09/23 10:53:57;;;;;;;3.07;2.97;;;16.70;61.10;;;;;;6186651;28;20810;-79
2023/09/23 10:57:01;;;;;;;3.73;2.90;;;16.90;60.80;;;;;;6188650;28;20371;-81
2023/09/23 11:00:14;;;;;;;3.00;2.80;;;16.70;61.00;;;;;;6189300;28;20291;-80
2023/09/23 11:03:21;;;;;;;2.90;2.80;;;16.70;61.10;;;;;;6190454;28;20268;-80
2023/09/23 11:06:24;;;;;;;2.60;2.60;;;16.60;61.10;;;;;;6190147;28;20240;-81
2023/09/23 11:09:30;;;;;;;3.03;2.77;;;16.80;61.30;;;;;;6194426;28;20361;-80
2023/09/23 11:12:34;;;;;;;2.60;2.60;;;16.90;60.70;;;;;;6185568;28;20369;-77
2023/09/23 11:15:37;;;;;;;2.47;2.47;;;16.90;60.70;;;;;;6201236;28;20747;-82
2023/09/23 11:18:42;;;;;;;2.53;2.50;;;17.00;60.10;;;;;;6189978;28;20703;-81
2023/09/23 11:21:46;;;;;;;2.70;2.70;;;17.00;59.90;;;;;;6189175;28;20236;-82
2023/09/23 11:24:51;;;;;;;2.40;2.37;;;16.90;60.50;;;;;;6185490;28;20294;-78
2023/09/23 11:27:59;;;;;;;2.93;2.80;;;16.80;61.10;;;;;;6188212;28;20483;-80
2023/09/23 11:31:02;;;;;;;2.40;2.40;;;16.70;60.90;;;;;;6188729;28;20247;-79
2023/09/23 11:34:06;;;;;;;3.03;2.73;;;16.80;60.10;;;;;;6183910;28;20326;-79
2023/09/23 11:37:09;;;;;;;2.43;2.43;;;16.80;60.90;;;;;;6188471;28;20232;-80
2023/09/23 11:40:15;;;;;;;2.20;2.10;;;17.00;60.50;;;;;;6186313;28;20263;-80
2023/09/23 11:43:19;;;;;;;2.40;2.30;;;17.30;59.90;;;;;;6187815;28;20243;-80
2023/09/23 11:46:24;;;;;;;2.40;2.30;;;17.50;59.40;;;;;;6185700;28;20786;-80
2023/09/23 11:49:27;;;;;;;2.37;2.37;;;17.40;59.10;;;;;;6187992;28;20235;-80
2023/09/23 11:52:31;;;;;;;2.27;2.27;;;17.70;59.50;;;;;;6186386;28;20240;-81
2023/09/23 11:55:35;;;;;;;1.80;1.80;;;18.00;58.60;;;;;;6178577;28;20228;-80
2023/09/23 11:58:39;;;;;;;1.97;1.80;;;18.10;58.20;;;;;;6190161;28;20704;-81
2023/09/23 12:01:47;;;;;;;2.63;2.53;;;18.10;56.90;;;;;;6190252;28;21041;-81
2023/09/23 12:04:50;;;;;;;2.53;2.00;;;18.00;56.80;;;;;;6191688;28;20303;-80
2023/09/23 12:07:54;;;;;;;1.83;1.83;;;17.80;57.50;;;;;;6184824;28;20239;-81
2023/09/23 12:10:59;;;;;;;1.80;1.80;;;17.80;57.80;;;;;;6190247;28;20358;-78
2023/09/23 12:14:02;;;;;;;2.00;1.90;;;17.80;57.80;;;;;;6191959;28;20235;-81
2023/09/23 12:17:07;;;;;;;3.17;2.03;;;17.80;57.80;;;;;;6190008;28;20267;-79
2023/09/23 12:20:11;;;;;;;2.33;1.90;;;17.50;58.20;;;;;;6189117;28;20244;-80
2023/09/23 12:23:15;;;;;;;2.43;2.00;;;17.40;58.20;;;;;;6192104;28;20323;-79
2023/09/23 12:26:20;;;;;;;2.07;1.83;;;17.40;58.50;;;;;;6191450;28;20232;-79
2023/09/23 12:29:23;;;;;;;1.77;1.77;;;17.50;58.90;;;;;;6186084;28;20238;-80
2023/09/23 12:32:26;;;;;;;1.93;1.83;;;17.60;58.20;;;;;;6192140;28;20287;-81
2023/09/23 12:35:30;;;;;;;2.00;2.00;;;17.60;57.90;;;;;;6189473;28;20232;-78
2023/09/23 12:38:33;;;;;;;2.23;2.13;;;17.80;57.20;;;;;;6185435;28;20236;-78
2023/09/23 12:41:38;;;;;;;2.20;2.20;;;17.60;57.50;;;;;;6185682;28;20740;-81
2023/09/23 12:44:41;;;;;;;1.87;1.87;;;17.50;57.80;;;;;;6186136;28;20753;-79
2023/09/23 12:47:45;;;;;;;1.83;1.83;;;17.40;57.70;;;;;;6186336;28;20312;-80
2023/09/23 12:50:59;;;;;;;1.80;1.80;;;17.50;57.80;;;;;;6181872;28;20239;-81
2023/09/23 12:54:02;;;;;;;2.17;1.97;;;17.20;57.90;;;;;;6182430;28;20754;-79
2023/09/23 12:57:06;;;;;;;1.70;1.70;;;17.20;57.80;;;;;;6198811;28;20309;-80
2023/09/23 13:00:11;;;;;;;1.97;1.97;;;17.40;57.90;;;;;;6192015;28;20240;-80
2023/09/23 13:03:14;;;;;;;1.80;1.80;;;17.40;57.60;;;;;;6194247;28;20246;-81
2023/09/23 13:06:17;;;;;;;1.73;1.73;;;17.70;57.30;;;;;;6191678;28;20612;-80
2023/09/23 13:09:20;;;;;;;1.70;1.70;;;18.00;56.80;;;;;;6191918;28;20235;-79
2023/09/23 13:12:25;;;;;;;1.63;1.50;;;18.30;57.20;;;;;;6192395;28;20645;-79
2023/09/23 13:15:28;;;;;;;1.50;1.50;;;18.70;56.20;;;;;;6189256;28;20849;-78
2023/09/23 13:18:31;;;;;;;1.90;1.80;;;19.00;54.90;;;;;;6189056;28;20413;-79
2023/09/23 13:21:34;;;;;;;1.97;1.73;;;19.20;54.40;;;;;;6191947;28;20239;-76
2023/09/23 13:24:37;;;;;;;1.50;1.50;;;19.10;54.40;;;;;;6187532;28;20326;-80
2023/09/23 13:27:42;;;;;;;1.70;1.70;;;18.80;53.60;;;;;;6192513;28;20653;-77
2023/09/23 13:30:45;;;;;;;2.10;2.10;;;18.40;55.30;;;;;;6192697;28;20240;-78
2023/09/23 13:33:49;;;;;;;1.80;1.70;;;18.10;56.10;;;;;;6188007;28;20236;-82
2023/09/23 13:36:52;;;;;;;2.03;1.93;;;18.20;55.40;;;;;;6186619;28;20239;-77
2023/09/23 13:39:57;;;;;;;1.80;1.80;;;18.30;55.20;;;;;;6185130;28;20309;-78
2023/09/23 13:43:02;;;;;;;2.00;1.90;;;18.20;55.50;;;;;;6191434;28;20765;-78
2023/09/23 13:46:05;;;;;;;2.00;2.00;;;18.20;56.20;;;;;;6187798;28;20275;-79
2023/09/23 13:49:08;;;;;;;2.00;2.00;;;18.20;55.40;;;;;;6185362;28;20244;-77
2023/09/23 13:52:11;;;;;;;2.50;2.30;;;18.10;55.50;;;;;;6191395;28;20240;-79
2023/09/23 13:55:14;;;;;;;2.20;2.00;;;18.00;55.00;;;;;;6188976;28;20264;-79
2023/09/23 13:58:18;;;;;;;2.37;2.17;;;17.80;56.00;;;;;;6191465;28;20692;-81
2023/09/23 14:01:23;;;;;;;2.20;1.97;;;17.50;56.20;;;;;;6191527;28;20330;-79
2023/09/23 14:04:26;;;;;;;2.40;2.20;;;17.50;56.20;;;;;;6190366;28;20243;-77
2023/09/23 14:07:29;;;;;;;2.37;2.17;;;17.40;56.70;;;;;;6190654;28;20286;-76
2023/09/23 14:10:32;;;;;;;2.17;2.13;;;17.40;56.80;;;;;;6184701;28;20279;-81
2023/09/23 14:13:37;;;;;;;2.00;2.00;;;17.50;56.80;;;;;;6197050;28;20317;-77
2023/09/23 14:16:40;;;;;;;2.00;1.90;;;17.50;56.30;;;;;;6198090;28;20243;-78
2023/09/23 14:19:44;;;;;;;2.40;2.30;;;17.60;56.40;;;;;;6187267;28;20260;-77
2023/09/23 14:22:48;;;;;;;2.37;2.27;;;17.50;56.50;;;;;;6178518;28;20259;-75
2023/09/23 14:25:52;;;;;;;2.00;2.00;;;17.60;56.80;;;;;;6191207;28;20228;-76
2023/09/23 14:28:56;;;;;;;2.57;2.40;;;17.70;56.80;;;;;;6188382;28;20236;-78
2023/09/23 14:31:59;;;;;;;2.30;2.23;;;17.70;57.30;;;;;;6187073;28;20274;-77
2023/09/23 14:35:02;;;;;;;2.17;2.07;;;17.70;56.40;;;;;;6180191;28;20315;-77
2023/09/23 14:38:06;;;;;;;2.20;2.10;;;17.50;57.00;;;;;;6186940;28;20239;-77
2023/09/23 14:41:09;;;;;;;3.03;2.83;;;17.50;57.30;;;;;;6189556;28;20240;-78
2023/09/23 14:44:14;;;;;;;2.70;2.60;;;17.60;56.90;;;;;;6184743;28;20272;-77
2023/09/23 14:47:17;;;;;;;2.30;2.20;;;17.90;57.10;;;;;;6185590;28;20778;-77
2023/09/23 14:50:21;;;;;;;2.17;2.07;;;18.10;56.50;;;;;;6187786;28;20236;-78
2023/09/23 14:53:24;;;;;;;2.17;2.00;;;18.20;56.70;;;;;;6189549;28;20743;-79
2023/09/23 14:56:27;;;;;;;2.20;2.20;;;18.20;56.70;;;;;;6185775;28;20409;-77
2023/09/23 14:59:32;;;;;;;2.03;1.90;;;18.00;56.80;;;;;;6188247;28;20636;-79
2023/09/23 15:02:35;;;;;;;2.07;2.03;;;17.90;56.90;;;;;;6184481;28;20310;-77
2023/09/23 15:05:38;;;;;;;2.10;2.00;;;17.80;57.50;;;;;;6186380;28;20390;-79
2023/09/23 15:08:41;;;;;;;1.90;1.90;;;17.60;57.60;;;;;;6187082;28;20882;-78
2023/09/23 15:12:01;;;;;;;2.37;2.17;;;17.50;57.80;;;;;;6188038;28;20657;-78
2023/09/23 15:15:07;;;;;;;2.27;2.17;;;17.60;57.60;;;;;;6188813;28;21371;-78
2023/09/23 15:18:10;;;;;;;3.00;2.60;;;17.50;58.20;;;;;;6189648;28;20297;-78
2023/09/23 15:21:13;;;;;;;2.30;2.20;;;17.50;57.90;;;;;;6188811;28;20268;-80
2023/09/23 15:24:16;;;;;;;2.30;2.20;;;17.60;57.30;;;;;;6188747;28;20737;-78
2023/09/23 15:27:20;;;;;;;2.43;2.23;;;17.60;57.40;;;;;;6187663;28;20235;-79
2023/09/23 15:30:25;;;;;;;2.30;2.27;;;17.60;57.40;;;;;;6184257;28;20931;-78
2023/09/23 15:33:28;;;;;;;2.50;2.40;;;17.60;57.30;;;;;;6187746;28;20244;-79
2023/09/23 15:36:31;;;;;;;2.23;2.23;;;17.70;57.40;;;;;;6186463;28;20243;-79
2023/09/23 15:39:35;;;;;;;2.50;2.40;;;17.60;57.40;;;;;;6181937;28;20619;-79
2023/09/23 15:42:38;;;;;;;3.13;2.10;;;17.60;57.80;;;;;;6183180;28;20994;-79
2023/09/23 15:45:43;;;;;;;2.30;2.20;;;17.60;57.40;;;;;;6181876;28;20906;-77
2023/09/23 15:48:46;;;;;;;2.60;2.50;;;17.50;57.60;;;;;;6187365;28;20235;-78
2023/09/23 15:51:50;;;;;;;2.67;2.47;;;17.50;57.90;;;;;;6188366;28;20296;-79
2023/09/23 15:54:54;;;;;;;2.70;2.60;;;17.40;58.10;;;;;;6183543;28;20747;-80
2023/09/23 15:57:57;;;;;;;2.50;2.50;;;17.30;58.30;;;;;;6187003;28;20267;-81
2023/09/23 16:01:01;;;;;;;2.73;2.53;;;17.20;58.50;;;;;;6187472;28;20488;-79